TimeCDT,TemperatureF,Dew PointF,Humidity,Sea Level PressureIn,VisibilityMPH,Wind Direction,Wind SpeedMPH,Gust SpeedMPH,PrecipitationIn,Events,Conditions,WindDirDegrees,DateUTC
8:35 AM,70.7,66.4,86,30.10,10.0,SSW,19.6,-,N/A,,Clear,210,2013-08-12 13:35:00
9:15 AM,73.8,67.3,80,30.10,10.0,SW,15.0,21.9,N/A,,Clear,220,2013-08-12 14:15:00
9:35 AM,75.6,67.3,75,30.10,10.0,SW,15.0,21.9,N/A,,Clear,230,2013-08-12 14:35:00
1:15 PM,86.2,65.7,50,30.09,10.0,West,17.3,23.0,N/A,,Clear,260,2013-08-12 18:15:00
1:55 PM,88.7,65.1,45,30.07,10.0,West,16.1,21.9,N/A,,Clear,270,2013-08-12 18:55:00
2:15 PM,88.5,64.8,45,30.07,10.0,West,16.1,-,N/A,,Clear,260,2013-08-12 19:15:00
4:15 PM,90.3,58.8,35,30.03,10.0,WNW,8.1,-,N/A,,Clear,290,2013-08-12 21:15:00
6:15 PM,74.3,64.0,70,30.07,7.0,WNW,26.5,38.0,N/A,,Mostly Cloudy,290,2013-08-12 23:15:00
6:55 PM,72.3,64.2,76,30.06,10.0,NNW,16.1,23.0,0.02,,Overcast,340,2013-08-12 23:55:00
7:15 PM,73.9,62.8,68,30.06,10.0,NNW,12.7,-,N/A,,Mostly Cloudy,340,2013-08-13 00:15:00
7:35 PM,74.7,59.5,59,30.06,10.0,North,11.5,-,N/A,,Mostly Cloudy,360,2013-08-13 00:35:00
7:55 PM,73.4,59.9,63,30.08,10.0,ESE,9.2,19.6,N/A,,Mostly Cloudy,110,2013-08-13 00:55:00
8:15 PM,71.4,63.7,76,30.07,10.0,SE,10.4,-,N/A,,Overcast,130,2013-08-13 01:15:00
8:35 PM,71.6,64.4,78,30.07,10.0,SE,9.2,-,N/A,,Scattered Clouds,140,2013-08-13 01:35:00
8:55 PM,70.9,64.8,81,30.08,10.0,SE,6.9,-,N/A,,Clear,140,2013-08-13 01:55:00
9:15 PM,70.7,64.6,81,30.07,10.0,SSE,10.4,-,N/A,,Clear,160,2013-08-13 02:15:00
9:35 PM,70.5,64.6,81,30.06,10.0,South,10.4,-,N/A,,Scattered Clouds,170,2013-08-13 02:35:00
9:55 PM,70.3,64.6,82,30.06,10.0,SSW,9.2,-,N/A,,Scattered Clouds,200,2013-08-13 02:55:00
10:55 PM,68.9,63.9,84,30.06,10.0,SW,9.2,-,N/A,,Clear,220,2013-08-13 03:55:00
11:15 PM,68.9,64.4,86,30.05,10.0,SSW,9.2,-,N/A,,Clear,210,2013-08-13 04:15:00
11:35 PM,69.6,64.2,83,30.05,10.0,SSW,9.2,-,N/A,,Mostly Cloudy,200,2013-08-13 04:35:00
11:55 PM,69.8,63.9,81,30.05,10.0,SW,9.2,-,N/A,,Overcast,230,2013-08-13 04:55:00